Time;durP1;ratioP1;P1;durP2;ratioP2;P2;SDS_P1;SDS_P2;PMS_P1;PMS_P2;Temp;Humidity;BMP_temperature;BMP_pressure;BME280_temperature;BME280_humidity;BME280_pressure;Samples;Min_cycle;Max_cycle;Signal;HPM_P1;HPM_P2
2023/07/20 00:00:13;;;;;;;2.47;2.07;;;;;;;19.95;55.43;97942.50;5073866;28;20230;-79
2023/07/20 00:02:40;;;;;;;2.97;1.80;;;;;;;19.93;55.55;97936.44;5074422;28;20665;-79
2023/07/20 00:05:07;;;;;;;4.43;1.97;;;;;;;19.89;55.69;97943.19;5074395;28;20254;-77
2023/07/20 00:07:33;;;;;;;3.40;2.20;;;;;;;19.84;56.16;97956.25;5074346;28;20678;-79
2023/07/20 00:10:00;;;;;;;4.10;1.57;;;;;;;19.78;56.69;97959.59;5073539;28;20214;-80
2023/07/20 00:12:27;;;;;;;3.00;2.07;;;;;;;19.70;57.40;97956.91;5074528;28;20203;-79
2023/07/20 00:14:54;;;;;;;2.73;2.00;;;;;;;19.62;58.38;97958.75;5074020;28;20208;-80
2023/07/20 00:17:21;;;;;;;2.60;1.90;;;;;;;19.55;58.56;97966.63;5074137;28;20203;-78
2023/07/20 00:19:47;;;;;;;3.60;2.10;;;;;;;19.49;59.17;97967.28;5073579;28;20207;-78
2023/07/20 00:22:14;;;;;;;3.03;2.40;;;;;;;19.52;59.69;97964.25;5074308;28;20215;-78
2023/07/20 00:24:40;;;;;;;2.50;2.30;;;;;;;19.46;59.83;97964.94;5073925;28;20259;-79
2023/07/20 00:27:07;;;;;;;2.30;2.00;;;;;;;19.46;60.01;97966.78;5073931;28;20674;-77
2023/07/20 00:29:35;;;;;;;3.13;2.30;;;;;;;19.40;59.67;97965.59;5073143;28;20214;-79
2023/07/20 00:32:01;;;;;;;2.40;2.20;;;;;;;19.36;59.81;97961.56;5073967;28;20215;-80
2023/07/20 00:34:28;;;;;;;2.67;2.10;;;;;;;19.38;58.97;97962.22;5073830;28;20246;-79
2023/07/20 00:36:54;;;;;;;4.50;2.17;;;;;;;19.27;59.47;97959.84;5073919;28;20218;-79
2023/07/20 00:39:21;;;;;;;3.57;2.03;;;;;;;19.19;59.73;97957.13;5072994;28;20222;-77
2023/07/20 00:41:47;;;;;;;4.03;2.10;;;;;;;19.09;59.01;97964.47;5073608;28;20701;-77
2023/07/20 00:44:14;;;;;;;4.00;1.90;;;;;;;19.09;59.17;97960.97;5072919;28;20612;-79
2023/07/20 00:46:43;;;;;;;2.00;1.80;;;;;;;19.06;58.73;97956.75;5073734;28;20239;-78
2023/07/20 00:49:10;;;;;;;3.20;1.83;;;;;;;19.02;59.14;97962.63;5073024;28;20211;-77
2023/07/20 00:51:37;;;;;;;3.20;2.00;;;;;;;18.93;58.57;97956.38;5073482;28;20222;-78
2023/07/20 00:54:04;;;;;;;2.90;1.80;;;;;;;18.85;58.68;97951.00;5073390;28;20247;-78
2023/07/20 00:56:30;;;;;;;1.90;1.50;;;;;;;18.81;58.71;97957.69;5073427;28;20646;-78
2023/07/20 00:58:58;;;;;;;4.80;1.87;;;;;;;18.83;58.53;97955.66;5072589;28;20222;-79
2023/07/20 01:01:24;;;;;;;3.20;1.60;;;;;;;18.80;58.20;97953.31;5072778;28;20234;-79
2023/07/20 01:03:52;;;;;;;1.90;1.70;;;;;;;18.79;57.83;97959.69;5073396;28;20261;-79
2023/07/20 01:06:27;;;;;;;2.20;1.70;;;;;;;18.70;58.19;97957.97;5073104;28;20231;-78
2023/07/20 01:09:03;;;;;;;2.87;1.83;;;;;;;18.69;58.29;97956.28;5073395;28;20210;-79
2023/07/20 01:11:42;;;;;;;2.40;1.47;;;;;;;18.62;58.85;97957.94;5072749;28;20223;-78
2023/07/20 01:14:09;;;;;;;2.43;1.80;;;;;;;18.61;58.14;97950.91;5073222;28;20267;-79
2023/07/20 01:16:35;;;;;;;3.27;1.73;;;;;;;18.54;58.79;97955.19;5073273;28;20204;-79
2023/07/20 01:19:04;;;;;;;2.90;1.63;;;;;;;18.51;58.70;97952.84;5072930;28;20592;-80
2023/07/20 01:21:38;;;;;;;3.37;1.80;;;;;;;18.49;59.24;97954.84;5072442;28;20211;-79
2023/07/20 01:24:40;;;;;;;3.00;1.70;;;;;;;18.49;59.04;97960.22;5073066;28;20239;-77
2023/07/20 01:27:44;;;;;;;2.13;1.60;;;;;;;18.43;59.77;97963.53;5073130;28;20352;-79
2023/07/20 01:30:34;;;;;;;1.70;1.57;;;;;;;18.38;59.90;97971.19;5071945;28;20270;-79
2023/07/20 01:33:03;;;;;;;2.40;1.90;;;;;;;18.34;60.13;97963.63;5072241;28;20246;-79
2023/07/20 01:35:30;;;;;;;2.57;1.70;;;;;;;18.28;60.55;97970.41;5072731;28;20204;-79
2023/07/20 01:37:58;;;;;;;1.67;1.50;;;;;;;18.22;60.63;97964.84;5072756;28;20389;-78
2023/07/20 01:40:26;;;;;;;2.77;1.40;;;;;;;18.22;60.90;97967.53;5071993;28;20211;-78
2023/07/20 01:42:53;;;;;;;2.30;1.57;;;;;;;18.17;61.40;97967.97;5072694;28;20223;-78
2023/07/20 01:45:20;;;;;;;2.10;1.50;;;;;;;18.15;61.25;97975.34;5072329;28;20227;-78
2023/07/20 01:47:46;;;;;;;3.30;1.60;;;;;;;18.07;61.68;97972.59;5072677;28;20226;-78
2023/07/20 01:50:14;;;;;;;2.27;1.60;;;;;;;18.00;62.93;97976.91;5071508;28;20678;-78
2023/07/20 01:52:41;;;;;;;1.80;1.57;;;;;;;17.98;62.76;97962.84;5072241;28;20247;-78
2023/07/20 01:55:08;;;;;;;1.63;1.53;;;;;;;17.88;63.18;97974.63;5072045;28;20214;-78
2023/07/20 01:57:35;;;;;;;2.63;1.70;;;;;;;17.85;63.52;97973.09;5072748;28;20213;-78
2023/07/20 02:00:01;;;;;;;2.20;1.80;;;;;;;17.83;63.63;97983.13;5071456;28;20701;-78
2023/07/20 02:02:28;;;;;;;3.93;2.07;;;;;;;17.77;64.02;97977.53;5072099;28;20686;-78
2023/07/20 02:04:55;;;;;;;3.50;1.90;;;;;;;17.72;64.34;97978.00;5071939;28;20207;-78
2023/07/20 02:07:22;;;;;;;2.57;1.70;;;;;;;17.64;64.63;97977.94;5071895;28;20243;-77
2023/07/20 02:09:49;;;;;;;2.73;1.90;;;;;;;17.60;65.18;97986.41;5071435;28;20589;-78
2023/07/20 02:12:15;;;;;;;2.13;1.90;;;;;;;17.51;65.99;97981.97;5071821;28;20204;-80
2023/07/20 02:14:43;;;;;;;2.07;1.73;;;;;;;17.46;66.09;97974.44;5071658;28;20239;-79
2023/07/20 02:17:10;;;;;;;3.20;1.90;;;;;;;17.39;66.88;97983.19;5071944;28;20203;-78
2023/07/20 02:19:37;;;;;;;3.87;1.80;;;;;;;17.36;67.14;97988.78;5071126;28;20212;-78
2023/07/20 02:22:04;;;;;;;2.50;1.90;;;;;;;17.33;67.50;97987.28;5071671;28;20220;-79
2023/07/20 02:24:32;;;;;;;2.90;1.80;;;;;;;17.35;67.65;97985.28;5071710;28;20238;-78
2023/07/20 02:26:58;;;;;;;3.30;2.10;;;;;;;17.34;67.38;97983.63;5071856;28;20239;-79
2023/07/20 02:29:25;;;;;;;2.10;1.90;;;;;;;17.37;67.33;97993.16;5070904;28;20214;-78
2023/07/20 02:31:51;;;;;;;4.50;1.80;;;;;;;17.35;67.44;97984.44;5071749;28;20220;-77
2023/07/20 02:34:18;;;;;;;2.33;1.90;;;;;;;17.34;67.70;97982.78;5071409;28;20240;-78
2023/07/20 02:36:46;;;;;;;2.40;1.73;;;;;;;17.34;67.77;97988.97;5071458;28;20563;-78
2023/07/20 02:39:12;;;;;;;2.10;1.90;;;;;;;17.32;68.26;97990.94;5071058;28;20211;-78
2023/07/20 02:41:41;;;;;;;2.80;2.17;;;;;;;17.23;68.80;97989.19;5071586;28;20699;-79
2023/07/20 02:44:07;;;;;;;4.63;2.20;;;;;;;17.17;69.62;97992.44;5071509;28;20317;-78
2023/07/20 02:46:35;;;;;;;3.77;1.80;;;;;;;17.11;69.87;97997.53;5071549;28;20257;-78
2023/07/20 02:49:01;;;;;;;2.50;1.90;;;;;;;17.08;70.06;97998.66;5071641;28;20207;-77
2023/07/20 02:51:28;;;;;;;2.63;2.10;;;;;;;17.06;70.37;97994.50;5070822;28;20312;-78
2023/07/20 02:53:54;;;;;;;3.50;2.23;;;;;;;17.02;70.45;97999.25;5071712;28;20227;-77
2023/07/20 02:56:22;;;;;;;3.87;2.30;;;;;;;17.00;70.96;98005.78;5071233;28;20203;-77
2023/07/20 02:58:51;;;;;;;2.20;1.87;;;;;;;17.03;70.40;98000.13;5071192;28;20677;-77
2023/07/20 03:01:17;;;;;;;2.47;2.00;;;;;;;16.96;71.01;98005.19;5070665;28;20237;-78
2023/07/20 03:03:46;;;;;;;2.40;1.93;;;;;;;16.97;71.11;98006.06;5071097;28;20609;-78
2023/07/20 03:06:13;;;;;;;2.93;2.23;;;;;;;16.91;71.38;97996.81;5071218;28;20230;-76
2023/07/20 03:08:39;;;;;;;3.70;2.43;;;;;;;16.89;71.71;98013.97;5077272;28;20295;-77
2023/07/20 03:11:06;;;;;;;4.17;2.20;;;;;;;16.89;71.54;97998.78;5077193;28;20207;-77
2023/07/20 03:13:32;;;;;;;3.80;2.40;;;;;;;16.88;71.37;98002.44;5077885;28;20310;-76
2023/07/20 03:16:00;;;;;;;3.27;1.90;;;;;;;16.88;71.62;98007.78;5077919;28;20215;-77
2023/07/20 03:18:26;;;;;;;3.87;2.03;;;;;;;16.90;71.79;98008.50;5077610;28;20218;-77
2023/07/20 03:20:53;;;;;;;4.30;1.90;;;;;;;16.84;72.07;98009.09;5077109;28;20210;-77
2023/07/20 03:23:19;;;;;;;3.57;2.40;;;;;;;16.85;72.03;98012.56;5077915;28;20599;-77
2023/07/20 03:25:46;;;;;;;2.90;2.27;;;;;;;16.85;72.29;98010.75;5078066;28;20207;-77
2023/07/20 03:28:12;;;;;;;3.73;2.50;;;;;;;16.86;72.19;98008.91;5077822;28;20312;-78
2023/07/20 03:30:41;;;;;;;2.67;2.10;;;;;;;16.88;72.26;98013.13;5077075;28;20214;-78
2023/07/20 03:33:09;;;;;;;3.87;2.03;;;;;;;16.91;72.02;98018.19;5058205;22;1062935;-81
2023/07/20 03:35:35;;;;;;;3.43;1.67;;;;;;;16.93;71.91;98018.88;5098275;28;20213;-81
2023/07/20 03:38:02;;;;;;;2.00;1.80;;;;;;;16.92;72.12;98019.84;5098038;28;20210;-80
2023/07/20 03:40:28;;;;;;;3.73;2.50;;;;;;;16.90;72.02;98013.84;5097548;28;20218;-81
2023/07/20 03:42:55;;;;;;;4.40;2.03;;;;;;;16.91;71.81;98018.19;5098042;28;20207;-81
2023/07/20 03:45:23;;;;;;;2.30;1.93;;;;;;;16.90;71.98;98012.97;5098140;28;20203;-81
2023/07/20 03:47:50;;;;;;;4.87;2.23;;;;;;;16.90;72.28;98015.66;5098526;28;20227;-81
2023/07/20 03:50:18;;;;;;;2.03;1.80;;;;;;;16.87;72.65;98022.13;5098140;28;20211;-81
2023/07/20 03:52:44;;;;;;;3.07;1.70;;;;;;;16.85;72.75;98023.25;5098005;28;20211;-81
2023/07/20 03:55:11;;;;;;;2.40;2.07;;;;;;;16.83;72.97;98026.06;5097877;28;20222;-81
2023/07/20 03:57:37;;;;;;;2.33;1.97;;;;;;;16.84;72.91;98027.78;5097719;28;20207;-81
2023/07/20 04:00:07;;;;;;;3.87;2.10;;;;;;;16.78;73.52;98028.34;5097015;28;20686;-81
2023/07/20 04:02:34;;;;;;;3.77;2.17;;;;;;;16.74;73.93;98026.09;5097784;28;20255;-82
2023/07/20 04:05:00;;;;;;;3.90;2.53;;;;;;;16.72;74.39;98028.94;5098192;28;20230;-81
2023/07/20 04:07:28;;;;;;;4.30;1.93;;;;;;;16.70;74.56;98030.06;5103915;28;20241;-80
2023/07/20 04:09:54;;;;;;;2.83;2.17;;;;;;;16.72;74.70;98028.09;5102840;28;20214;-81
2023/07/20 04:12:21;;;;;;;4.97;2.47;;;;;;;16.69;74.77;98028.38;5099903;28;20206;-80
2023/07/20 04:14:47;;;;;;;2.70;2.00;;;;;;;16.70;75.06;98035.41;5103561;28;20709;-82
2023/07/20 04:17:14;;;;;;;2.30;2.07;;;;;;;16.69;75.17;98033.69;5115389;28;20194;-81
2023/07/20 04:19:40;;;;;;;2.67;2.10;;;;;;;16.73;75.19;98035.09;5118973;28;20190;-83
2023/07/20 04:22:07;;;;;;;3.03;1.83;;;;;;;16.78;74.83;98033.69;5119849;28;20210;-82
2023/07/20 04:24:35;;;;;;;4.00;2.20;;;;;;;16.85;74.39;98037.47;5119840;28;20224;-82
2023/07/20 04:27:01;;;;;;;2.20;2.00;;;;;;;16.98;74.15;98043.28;5119750;28;20234;-82
2023/07/20 04:29:28;;;;;;;3.10;2.00;;;;;;;17.07;73.68;98033.56;5119081;28;20210;-82
2023/07/20 04:31:54;;;;;;;4.13;2.33;;;;;;;17.19;73.31;98035.84;5119274;28;20198;-82
2023/07/20 04:34:21;;;;;;;2.73;2.10;;;;;;;17.28;72.58;98029.63;5119529;28;20238;-81
2023/07/20 04:36:47;;;;;;;3.67;2.00;;;;;;;17.37;71.78;98031.44;5119658;28;20191;-82
2023/07/20 04:39:14;;;;;;;6.43;2.27;;;;;;;17.49;71.05;98024.06;5118989;28;20199;-82
2023/07/20 04:41:41;;;;;;;5.10;2.00;;;;;;;17.54;70.54;98025.28;5119444;28;20280;-81
2023/07/20 04:44:08;;;;;;;2.33;1.80;;;;;;;17.56;70.51;98025.94;5112501;28;20221;-81
2023/07/20 04:46:34;;;;;;;3.73;2.20;;;;;;;17.56;70.82;98025.94;5116898;28;20224;-81
2023/07/20 04:49:01;;;;;;;2.73;1.97;;;;;;;17.60;70.94;98022.00;5119326;28;20191;-81
2023/07/20 04:51:30;;;;;;;3.33;2.00;;;;;;;17.63;70.88;98026.19;5118973;28;20213;-82
2023/07/20 04:53:56;;;;;;;2.93;2.17;;;;;;;17.64;71.25;98023.38;5119085;28;20219;-82
2023/07/20 04:56:23;;;;;;;4.20;1.97;;;;;;;17.65;71.47;98027.72;5119190;28;20191;-82
2023/07/20 04:58:51;;;;;;;3.53;2.20;;;;;;;17.70;71.54;98029.94;5119225;28;20199;-82
2023/07/20 05:01:18;;;;;;;3.47;2.30;;;;;;;17.74;71.75;98023.31;5118236;28;20191;-82
2023/07/20 05:03:44;;;;;;;2.97;2.20;;;;;;;17.87;71.09;98029.91;5119322;28;20215;-82
2023/07/20 05:06:11;;;;;;;3.40;1.80;;;;;;;18.06;70.38;98029.78;5118940;28;20195;-82
2023/07/20 05:08:37;;;;;;;2.83;2.00;;;;;;;18.22;69.67;98029.06;5119034;28;20205;-82
2023/07/20 05:11:04;;;;;;;3.33;2.00;;;;;;;18.38;68.58;98030.06;5116568;28;20233;-81
2023/07/20 05:13:30;;;;;;;3.40;2.10;;;;;;;18.56;68.02;98022.81;5111397;28;20210;-79
2023/07/20 05:15:58;;;;;;;2.43;2.00;;;;;;;18.74;66.96;98020.91;5101122;28;20669;-80
2023/07/20 05:18:24;;;;;;;2.87;2.40;;;;;;;18.88;66.31;98017.63;5101695;28;20218;-80
2023/07/20 05:20:51;;;;;;;4.77;2.00;;;;;;;19.01;65.44;98011.84;5100746;28;20676;-80
2023/07/20 05:23:19;;;;;;;2.20;1.80;;;;;;;19.37;64.18;98014.16;5100711;28;20230;-80
2023/07/20 05:25:45;;;;;;;2.90;2.03;;;;;;;19.91;62.47;98008.22;5099050;28;20254;-80
2023/07/20 05:28:12;;;;;;;3.53;1.80;;;;;;;20.48;60.42;98001.84;5099766;28;20246;-80
2023/07/20 05:30:38;;;;;;;3.13;2.20;;;;;;;21.12;58.55;98012.44;5116672;28;20190;-82
2023/07/20 05:33:06;;;;;;;2.57;1.80;;;;;;;21.66;56.88;97998.03;5118444;28;20234;-86
2023/07/20 05:35:33;;;;;;;2.67;2.13;;;;;;;22.04;54.52;97988.16;5118342;28;20191;-80
2023/07/20 05:37:59;;;;;;;4.03;1.83;;;;;;;22.45;53.46;97989.53;5112935;28;20195;-77
2023/07/20 05:40:26;;;;;;;3.20;2.30;;;;;;;22.82;52.57;97984.06;5092432;28;20214;-77
2023/07/20 05:42:53;;;;;;;4.87;2.20;;;;;;;23.12;51.82;97975.78;5093037;28;20202;-85
2023/07/20 05:45:20;;;;;;;3.53;2.17;;;;;;;23.40;50.80;97981.34;5096895;28;20218;-81
2023/07/20 05:47:47;;;;;;;6.77;3.20;;;;;;;23.51;49.78;97976.28;5094180;28;20743;-83
2023/07/20 05:50:15;;;;;;;3.90;2.30;;;;;;;23.77;48.98;97971.16;5092135;28;20560;-85
2023/07/20 05:52:41;;;;;;;4.47;2.10;;;;;;;23.92;48.60;97972.00;5092611;28;20206;-85
2023/07/20 05:55:08;;;;;;;3.63;1.90;;;;;;;24.05;47.88;97974.81;5094371;28;20214;-83
2023/07/20 05:57:35;;;;;;;2.57;1.77;;;;;;;24.20;47.93;97978.25;5093693;28;20688;-82
2023/07/20 06:00:03;;;;;;;3.80;2.00;;;;;;;24.46;47.31;97973.09;5094742;28;20230;-82
2023/07/20 06:02:29;;;;;;;3.40;2.13;;;;;;;24.69;46.96;97973.69;5097828;28;20207;-82
2023/07/20 06:04:56;;;;;;;3.93;1.93;;;;;;;24.73;46.11;97966.00;5104342;28;20283;-88
2023/07/20 06:07:24;;;;;;;5.33;2.00;;;;;;;24.80;46.23;97975.84;5108018;28;20234;-84
2023/07/20 06:09:50;;;;;;;3.03;2.20;;;;;;;24.97;45.79;97976.34;5098194;28;20211;-80
2023/07/20 06:12:17;;;;;;;3.80;1.90;;;;;;;24.81;45.63;97977.50;5101990;28;20222;-85
2023/07/20 06:14:43;;;;;;;3.40;1.87;;;;;;;24.75;46.02;97978.28;5109598;28;20227;-84
2023/07/20 06:17:09;;;;;;;3.77;1.70;;;;;;;24.88;45.91;97978.38;5105793;28;20218;-86
2023/07/20 06:19:36;;;;;;;2.80;1.93;;;;;;;25.00;45.37;97976.78;5096510;28;20660;-81
2023/07/20 06:22:03;;;;;;;2.67;1.80;;;;;;;25.20;45.36;97977.72;5092122;28;20203;-79
2023/07/20 06:24:31;;;;;;;2.37;1.73;;;;;;;25.50;44.68;97972.88;5092134;28;20227;-79
2023/07/20 06:26:57;;;;;;;2.10;1.87;;;;;;;25.39;43.74;97968.03;5092423;28;20226;-81
2023/07/20 06:29:24;;;;;;;2.83;1.60;;;;;;;25.50;44.20;97968.31;5091140;28;20717;-82
2023/07/20 06:31:50;;;;;;;4.20;1.90;;;;;;;25.60;44.31;97976.03;5092206;28;20209;-79
2023/07/20 06:34:17;;;;;;;3.20;1.83;;;;;;;25.60;44.13;97968.72;5091508;28;20278;-80
2023/07/20 06:36:44;;;;;;;3.47;1.77;;;;;;;25.70;44.38;97971.91;5091434;28;20218;-84
2023/07/20 06:39:10;;;;;;;3.33;1.70;;;;;;;25.68;44.67;97976.69;5093204;28;20320;-79
2023/07/20 06:41:38;;;;;;;2.87;1.80;;;;;;;25.88;44.41;97972.16;5114539;28;20240;-92
2023/07/20 06:44:05;;;;;;;4.53;1.80;;;;;;;25.84;44.63;97973.59;5116413;28;20215;-92
2023/07/20 06:46:31;;;;;;;3.92;1.85;;;;;;;25.75;44.35;97965.84;5116893;28;20201;-92
2023/07/20 06:48:58;;;;;;;2.17;1.77;;;;;;;25.90;44.58;97970.09;5117030;28;20221;-91
2023/07/20 06:51:24;;;;;;;3.97;1.93;;;;;;;25.60;44.27;97971.44;5116223;28;20200;-94
2023/07/20 06:53:51;;;;;;;2.78;1.48;;;;;;;25.82;44.42;97966.69;5116176;28;20270;-92
2023/07/20 06:56:17;;;;;;;1.83;1.63;;;;;;;25.88;44.45;97969.44;5113098;28;20206;-91
2023/07/20 06:58:45;;;;;;;3.30;1.60;;;;;;;25.87;44.83;97975.91;5114741;28;20251;-92
2023/07/20 07:01:12;;;;;;;1.80;1.70;;;;;;;25.79;44.25;97957.13;5112335;28;20224;-92
2023/07/20 07:03:38;;;;;;;2.67;1.85;;;;;;;25.06;45.09;97970.56;5114220;28;20214;-92
2023/07/20 07:06:05;;;;;;;2.93;2.03;;;;;;;24.72;46.64;97989.50;5094487;28;20231;-92
2023/07/20 07:08:32;;;;;;;3.40;1.80;;;;;;;24.25;47.07;97980.41;5113064;28;20298;-92
2023/07/20 07:10:58;;;;;;;2.30;1.90;;;;;;;23.75;48.49;97984.03;5115047;28;20225;-91
2023/07/20 07:13:25;;;;;;;2.53;1.80;;;;;;;23.35;49.79;97989.19;5113270;28;20214;-91
2023/07/20 07:15:52;;;;;;;3.90;1.97;;;;;;;23.10;50.24;97991.31;5112911;28;20267;-92
2023/07/20 07:18:20;;;;;;;2.87;1.90;;;;;;;22.98;51.13;97998.19;5094735;28;20206;-91
2023/07/20 07:20:55;;;;;;;2.90;2.10;;;;;;;22.98;50.53;97990.09;5095679;28;20206;-91
2023/07/20 07:23:22;;;;;;;2.97;2.00;;;;;;;23.01;50.80;97989.75;5092154;28;20226;-92
2023/07/20 07:25:49;;;;;;;2.50;1.70;;;;;;;23.03;50.88;97989.56;5091280;28;20213;-91
2023/07/20 07:28:15;;;;;;;1.87;1.63;;;;;;;23.12;50.65;97986.56;5091129;28;20279;-91
2023/07/20 07:30:42;;;;;;;3.67;2.30;;;;;;;23.25;50.63;97986.78;5090668;28;20207;-92
2023/07/20 07:33:10;;;;;;;2.60;1.83;;;;;;;23.40;49.65;97984.06;5091041;28;20241;-93
2023/07/20 07:35:37;;;;;;;4.57;2.10;;;;;;;23.51;49.54;97986.22;5091219;28;20230;-92
2023/07/20 07:38:03;;;;;;;3.30;1.90;;;;;;;23.71;49.07;97982.72;5091647;28;20230;-92
2023/07/20 07:40:30;;;;;;;3.00;2.07;;;;;;;23.85;48.09;97971.06;5090490;28;20264;-92
2023/07/20 07:42:56;;;;;;;2.60;2.03;;;;;;;23.87;48.49;97973.53;5091034;28;21837;-92
2023/07/20 07:45:23;;;;;;;2.20;1.50;;;;;;;23.88;48.18;97978.78;5091101;28;20207;-92
2023/07/20 07:47:49;;;;;;;2.53;1.70;;;;;;;23.95;48.18;97978.88;5090725;28;20226;-92
2023/07/20 07:50:17;;;;;;;1.80;1.70;;;;;;;23.99;47.71;97967.47;5090350;28;20707;-92
2023/07/20 07:52:44;;;;;;;2.77;1.80;;;;;;;23.82;48.05;97971.44;5091000;28;20211;-92
2023/07/20 07:55:10;;;;;;;5.43;2.20;;;;;;;23.83;47.88;97977.69;5094669;28;20555;-92
2023/07/20 07:57:37;;;;;;;2.10;1.77;;;;;;;23.93;47.88;97970.09;5094541;28;20202;-92
2023/07/20 08:00:04;;;;;;;2.17;1.67;;;;;;;24.00;47.52;97969.16;5094168;28;20233;-92
2023/07/20 08:02:31;;;;;;;2.33;1.80;;;;;;;23.97;48.10;97972.25;5095116;28;20206;-92
2023/07/20 08:04:58;;;;;;;2.33;1.80;;;;;;;23.81;47.58;97968.91;5094672;28;20223;-90
2023/07/20 08:07:26;;;;;;;3.20;1.87;;;;;;;23.62;48.29;97972.25;5094662;28;20551;-91
2023/07/20 08:09:52;;;;;;;3.80;1.90;;;;;;;23.71;48.15;97971.94;5094025;28;20207;-91
2023/07/20 08:12:20;;;;;;;4.60;2.17;;;;;;;23.58;47.53;97966.41;5094389;28;20213;-92
2023/07/20 08:14:46;;;;;;;3.77;1.77;;;;;;;23.50;47.26;97962.97;5094273;28;20242;-93
2023/07/20 08:17:13;;;;;;;2.23;1.53;;;;;;;23.38;47.12;97959.97;5094484;28;20206;-91
2023/07/20 08:19:41;;;;;;;3.33;2.23;;;;;;;23.23;48.04;97972.63;5093615;28;20567;-94
2023/07/20 08:22:08;;;;;;;4.10;2.00;;;;;;;23.22;49.14;97979.03;5094145;28;20693;-92
2023/07/20 08:24:39;;;;;;;2.83;2.03;;;;;;;23.28;47.95;97959.41;5093972;28;20244;-92
2023/07/20 08:27:06;;;;;;;3.20;1.80;;;;;;;23.44;48.07;97964.59;5094260;28;20217;-91
2023/07/20 08:29:33;;;;;;;3.10;1.90;;;;;;;23.70;47.21;97954.06;5093243;28;20207;-90
2023/07/20 08:31:59;;;;;;;3.93;2.20;;;;;;;23.96;47.29;97959.75;5093850;28;20673;-92
2023/07/20 08:34:26;;;;;;;3.37;2.07;;;;;;;24.07;46.54;97950.31;5093975;28;20235;-90
2023/07/20 08:36:52;;;;;;;4.17;2.10;;;;;;;24.22;46.61;97967.25;5093934;28;20202;-91
2023/07/20 08:39:21;;;;;;;2.20;2.00;;;;;;;24.41;46.26;97964.72;5093129;28;20203;-91
2023/07/20 08:41:50;;;;;;;2.33;1.70;;;;;;;24.04;45.54;97954.25;5094036;28;20234;-92
2023/07/20 08:44:16;;;;;;;2.47;1.87;;;;;;;23.88;47.47;97973.41;5093885;28;20226;-92
2023/07/20 08:46:44;;;;;;;3.17;1.87;;;;;;;23.92;48.15;97980.09;5093898;28;20218;-92
2023/07/20 08:49:11;;;;;;;2.30;2.00;;;;;;;23.94;47.21;97967.22;5092990;28;20257;-92
2023/07/20 08:51:40;;;;;;;4.20;1.90;;;;;;;24.03;47.41;97957.94;5101562;28;20717;-91
2023/07/20 08:54:08;;;;;;;2.73;1.90;;;;;;;24.15;45.73;97959.09;5100468;28;20223;-91
2023/07/20 08:56:35;;;;;;;2.13;1.67;;;;;;;24.07;45.94;97955.72;5100260;28;20202;-91
2023/07/20 08:59:04;;;;;;;1.83;1.50;;;;;;;23.90;45.48;97959.72;5094770;28;20199;-92
2023/07/20 09:01:31;;;;;;;2.30;1.57;;;;;;;23.62;45.66;97954.22;5093563;28;20215;-91
2023/07/20 09:03:58;;;;;;;2.77;1.97;;;;;;;23.43;46.14;97945.91;5094163;28;20720;-92
2023/07/20 09:06:25;;;;;;;2.70;1.80;;;;;;;23.46;47.22;97957.13;5093068;28;20302;-91
2023/07/20 09:08:52;;;;;;;1.83;1.50;;;;;;;23.73;45.63;97959.09;5093936;28;20238;-91
2023/07/20 09:11:18;;;;;;;2.43;2.00;;;;;;;23.61;45.01;97933.66;5093102;28;20211;-92
2023/07/20 09:13:45;;;;;;;3.47;2.10;;;;;;;23.76;44.91;97941.66;5093448;28;20230;-91
2023/07/20 09:16:14;;;;;;;3.23;1.60;;;;;;;23.69;45.67;97947.00;5093142;28;20251;-91
2023/07/20 09:18:40;;;;;;;2.90;1.80;;;;;;;23.72;46.48;97957.41;5093271;28;20210;-92
2023/07/20 09:21:07;;;;;;;4.60;1.90;;;;;;;23.92;46.21;97955.78;5092806;28;20214;-91
2023/07/20 09:23:35;;;;;;;2.10;1.90;;;;;;;24.15;45.94;97953.69;5093281;28;20231;-91
2023/07/20 09:26:02;;;;;;;3.87;1.93;;;;;;;23.98;47.12;97951.47;5093117;28;20688;-91
2023/07/20 09:28:29;;;;;;;3.73;1.97;;;;;;;24.00;47.03;97966.44;5093088;28;20230;-92
2023/07/20 09:30:56;;;;;;;2.20;1.70;;;;;;;24.08;44.89;97942.00;5092906;28;20203;-90
2023/07/20 09:33:25;;;;;;;6.87;3.20;;;;;;;24.17;45.12;97940.84;5108942;22;20256;-80
2023/07/20 09:35:52;;;;;;;2.47;1.93;;;;;;;24.26;44.17;97939.66;5093392;28;20207;-79
2023/07/20 09:38:18;;;;;;;1.87;1.70;;;;;;;24.37;43.78;97930.19;5092905;28;20207;-80
2023/07/20 09:40:45;;;;;;;3.07;1.63;;;;;;;24.65;42.05;97918.38;5092328;28;20668;-80
2023/07/20 09:43:12;;;;;;;2.23;1.50;;;;;;;24.71;41.97;97927.53;5092687;28;20218;-79
2023/07/20 09:45:41;;;;;;;1.67;1.40;;;;;;;24.50;39.92;97905.97;5092829;28;20215;-79
2023/07/20 09:48:08;;;;;;;1.97;1.40;;;;;;;24.46;40.04;97897.44;5092504;28;20226;-78
2023/07/20 09:50:41;;;;;;;1.87;1.50;;;;;;;24.41;40.88;97910.69;5092026;28;20218;-80
2023/07/20 09:53:08;;;;;;;1.53;1.30;;;;;;;24.40;41.52;97913.59;5092552;28;20569;-80
2023/07/20 09:55:35;;;;;;;3.00;1.37;;;;;;;24.51;41.67;97926.56;5092424;28;20210;-81
2023/07/20 09:58:03;;;;;;;1.80;1.63;;;;;;;24.47;40.90;97899.09;5092404;28;20207;-80
2023/07/20 10:00:30;;;;;;;2.53;1.40;;;;;;;24.55;41.88;97920.53;5091516;28;20217;-81
2023/07/20 10:02:59;;;;;;;2.13;1.30;;;;;;;24.72;39.97;97903.00;5092454;28;20218;-80
2023/07/20 10:05:27;;;;;;;2.50;1.47;;;;;;;24.51;39.12;97884.13;5092337;28;20202;-80
2023/07/20 10:07:56;;;;;;;2.33;1.30;;;;;;;24.55;39.73;97896.22;5092338;28;20214;-80
2023/07/20 10:10:23;;;;;;;4.03;1.43;;;;;;;24.64;40.10;97895.03;5091479;28;20238;-80
2023/07/20 10:12:52;;;;;;;2.23;1.30;;;;;;;24.81;38.80;97890.97;5092357;28;20293;-80
2023/07/20 10:15:22;;;;;;;1.90;1.43;;;;;;;24.91;38.25;97880.66;5092210;28;20258;-80
2023/07/20 10:17:58;;;;;;;2.00;1.20;;;;;;;24.90;37.64;97878.97;5090959;28;20256;-80
2023/07/20 10:20:27;;;;;;;2.60;1.47;;;;;;;24.81;38.37;97880.16;5091413;28;20206;-80
2023/07/20 10:22:57;;;;;;;1.80;1.27;;;;;;;24.61;38.57;97884.66;5091977;28;20215;-80
2023/07/20 10:25:24;;;;;;;1.53;1.30;;;;;;;24.72;39.36;97886.78;5091984;28;20644;-80
2023/07/20 10:27:51;;;;;;;1.85;1.30;;;;;;;24.61;38.27;97881.09;5092144;28;20229;-80
2023/07/20 10:30:19;;;;;;;3.23;1.40;;;;;;;24.59;37.92;97870.50;5091219;28;20217;-80
2023/07/20 10:32:46;;;;;;;1.53;0.90;;;;;;;24.65;37.68;97880.53;5091746;28;20256;-79
2023/07/20 10:35:14;;;;;;;2.07;1.20;;;;;;;24.56;37.36;97859.25;5091870;28;20230;-80
2023/07/20 10:37:48;;;;;;;1.40;1.07;;;;;;;24.60;37.54;97861.38;5091645;28;20206;-79
2023/07/20 10:40:31;;;;;;;2.00;1.20;;;;;;;24.57;37.04;97842.84;5091333;28;20269;-80
2023/07/20 10:42:59;;;;;;;2.40;1.27;;;;;;;24.68;37.96;97860.38;5092102;28;20753;-81
2023/07/20 10:45:36;;;;;;;1.97;1.20;;;;;;;24.84;37.07;97850.03;5092556;28;20203;-79
2023/07/20 10:48:06;;;;;;;1.50;1.20;;;;;;;24.86;35.96;97849.84;5092847;28;20210;-80
2023/07/20 10:50:34;;;;;;;2.00;1.10;;;;;;;24.80;36.14;97856.88;5091898;28;20210;-80
2023/07/20 10:53:12;;;;;;;2.00;1.50;;;;;;;24.71;36.60;97847.28;5094880;28;20211;-80
2023/07/20 10:55:40;;;;;;;2.20;1.50;;;;;;;24.74;36.11;97835.25;5103128;28;20664;-82
2023/07/20 10:58:11;;;;;;;4.43;1.30;;;;;;;24.75;36.71;97853.94;5096076;28;20211;-79
2023/07/20 11:00:38;;;;;;;2.13;1.20;;;;;;;24.77;37.16;97845.63;5092571;28;20203;-78
2023/07/20 11:03:05;;;;;;;1.20;1.10;;;;;;;24.90;36.69;97846.53;5092467;28;20211;-79
2023/07/20 11:05:42;;;;;;;1.73;1.20;;;;;;;24.84;36.53;97846.50;5091205;28;20680;-80
2023/07/20 11:08:12;;;;;;;1.70;1.20;;;;;;;24.84;36.83;97857.31;5091250;28;20210;-80
2023/07/20 11:10:40;;;;;;;1.40;1.27;;;;;;;24.77;35.63;97835.69;5090590;28;20210;-80
2023/07/20 11:13:21;;;;;;;1.60;1.20;;;;;;;24.91;35.70;97834.69;5091148;28;20206;-81
2023/07/20 11:15:49;;;;;;;1.97;1.10;;;;;;;24.91;35.43;97831.13;5091463;28;20202;-80
2023/07/20 11:18:16;;;;;;;4.10;1.50;;;;;;;25.08;35.90;97838.69;5091357;28;20211;-80
2023/07/20 11:20:42;;;;;;;1.30;1.20;;;;;;;25.28;36.26;97839.59;5090450;28;20677;-80
2023/07/20 11:23:10;;;;;;;1.60;1.20;;;;;;;25.38;36.17;97834.63;5091100;28;20255;-81
2023/07/20 11:25:41;;;;;;;2.67;1.52;;;;;;;25.61;35.46;97835.06;5090985;28;20206;-81
2023/07/20 11:28:08;;;;;;;2.43;1.17;;;;;;;25.75;34.43;97836.75;5091393;28;20260;-81
2023/07/20 11:30:35;;;;;;;1.55;1.00;;;;;;;25.61;34.75;97839.66;5094804;28;20206;-79
2023/07/20 11:33:01;;;;;;;1.77;1.20;;;;;;;25.48;35.37;97829.63;5094922;28;20213;-80
2023/07/20 11:35:28;;;;;;;1.85;1.10;;;;;;;25.59;35.69;97845.25;5095068;28;20218;-80